Time;durP1;ratioP1;P1;durP2;ratioP2;P2;SDS_P1;SDS_P2;PMS_P1;PMS_P2;Temp;Humidity;BMP_temperature;BMP_pressure;BME280_temperature;BME280_humidity;BME280_pressure;Samples;Min_cycle;Max_cycle;Signal;HPM_P1;HPM_P2
2023/12/03 00:02:12;;;;;;;1999.90;999.90;;;0.40;99.90;;;;;;5012663;28;20045;-80
2023/12/03 00:04:41;;;;;;;1999.90;999.90;;;0.40;99.90;;;;;;5032312;28;20095;-80
2023/12/03 00:07:07;;;;;;;1999.90;999.90;;;0.40;99.90;;;;;;5028789;28;20037;-80
2023/12/03 00:09:33;;;;;;;1999.90;999.90;;;0.30;99.90;;;;;;5030907;28;20052;-80
2023/12/03 00:11:59;;;;;;;1999.90;999.90;;;0.20;99.90;;;;;;5027083;28;20048;-80
2023/12/03 00:14:24;;;;;;;1999.90;999.90;;;0.10;99.90;;;;;;5023160;28;20045;-80
2023/12/03 00:16:50;;;;;;;1999.90;999.90;;;0.10;99.90;;;;;;5028499;28;20160;-80
2023/12/03 00:19:16;;;;;;;1999.90;999.90;;;0.00;99.90;;;;;;5047737;28;20396;-80
2023/12/03 00:21:41;;;;;;;1999.90;999.90;;;0.00;99.90;;;;;;5029851;28;20045;-80
2023/12/03 00:24:10;;;;;;;1999.90;999.90;;;-0.10;99.90;;;;;;5027293;28;20040;-80
2023/12/03 00:26:35;;;;;;;1999.90;999.90;;;-0.10;99.90;;;;;;5027982;28;20072;-80
2023/12/03 00:29:01;;;;;;;1999.90;999.90;;;-0.20;99.90;;;;;;5027744;28;20069;-80
2023/12/03 00:31:27;;;;;;;1999.90;999.90;;;-0.30;99.90;;;;;;5029396;28;20041;-80
2023/12/03 00:33:52;;;;;;;1999.90;999.90;;;-0.40;99.90;;;;;;5029465;28;20052;-80
2023/12/03 00:36:18;;;;;;;1999.90;999.90;;;-0.50;99.90;;;;;;5029902;28;20044;-80
2023/12/03 00:38:43;;;;;;;1999.90;999.90;;;-0.50;99.90;;;;;;5026434;28;20041;-80
2023/12/03 00:41:09;;;;;;;1999.90;999.90;;;-0.50;99.90;;;;;;5013498;28;20164;-80
2023/12/03 00:43:35;;;;;;;1999.90;999.90;;;-0.50;99.90;;;;;;5009475;28;20049;-80
2023/12/03 00:46:02;;;;;;;1999.90;999.90;;;-0.50;99.90;;;;;;5011528;28;20431;-80
2023/12/03 00:48:28;;;;;;;1999.90;999.90;;;-0.50;99.90;;;;;;5006670;28;20120;-80
2023/12/03 00:50:54;;;;;;;1999.90;999.90;;;-0.60;99.90;;;;;;5027597;28;20044;-80
2023/12/03 00:53:19;;;;;;;1999.90;999.90;;;-0.60;99.90;;;;;;5027707;28;20037;-80
2023/12/03 00:55:45;;;;;;;1999.90;999.90;;;-0.70;99.90;;;;;;5028513;28;20413;-80
2023/12/03 00:58:11;;;;;;;1999.90;999.90;;;-0.80;99.90;;;;;;5026060;28;20045;-79
2023/12/03 01:00:36;;;;;;;1999.90;999.90;;;-0.80;99.90;;;;;;5010916;28;20107;-80
2023/12/03 01:03:02;;;;;;;1999.90;999.90;;;-0.80;99.90;;;;;;5028705;28;20041;-80
2023/12/03 01:05:28;;;;;;;1999.90;999.90;;;-0.80;99.90;;;;;;5026974;28;20041;-80
2023/12/03 01:07:54;;;;;;;1999.90;999.90;;;-0.70;99.90;;;;;;5010859;28;20413;-80
2023/12/03 01:10:20;;;;;;;1999.90;999.90;;;-0.70;99.90;;;;;;5010129;28;20654;-80
2023/12/03 01:12:45;;;;;;;1999.90;999.90;;;-0.80;99.90;;;;;;5012393;28;20144;-80
2023/12/03 01:15:11;;;;;;;1999.90;999.90;;;-0.80;99.90;;;;;;5027647;28;20519;-80
2023/12/03 01:17:36;;;;;;;1999.90;999.90;;;-0.80;99.90;;;;;;5026009;28;20049;-79
2023/12/03 01:20:02;;;;;;;1999.90;999.90;;;-0.80;99.90;;;;;;5011420;28;20548;-80
2023/12/03 01:22:28;;;;;;;1999.90;999.90;;;-0.80;99.90;;;;;;5025169;28;20041;-80
2023/12/03 01:24:54;;;;;;;1999.90;999.90;;;-0.90;99.90;;;;;;5028385;28;20498;-80
2023/12/03 01:27:19;;;;;;;1999.90;999.90;;;-0.90;99.90;;;;;;5028833;28;20128;-80
2023/12/03 01:29:45;;;;;;;1999.90;999.90;;;-1.00;99.90;;;;;;5026480;28;20406;-80
2023/12/03 01:32:10;;;;;;;1999.90;999.90;;;-1.00;99.90;;;;;;5010090;28;20138;-80
2023/12/03 01:34:36;;;;;;;1999.90;999.90;;;-1.00;99.90;;;;;;5026968;28;20041;-80
2023/12/03 01:37:02;;;;;;;1999.90;999.90;;;-1.00;99.90;;;;;;5029945;28;20098;-80
2023/12/03 01:39:27;;;;;;;1999.90;999.90;;;-1.00;99.90;;;;;;5044496;28;20079;-79
2023/12/03 01:41:53;;;;;;;1999.90;999.90;;;-1.10;99.90;;;;;;5024741;28;20061;-80
2023/12/03 01:44:19;;;;;;;1999.90;999.90;;;-1.10;99.90;;;;;;5028264;28;20053;-80
2023/12/03 01:46:49;;;;;;;1999.90;999.90;;;-1.20;99.90;;;;;;5008315;28;20041;-80
2023/12/03 01:49:17;;;;;;;1999.90;999.90;;;-1.20;99.90;;;;;;5026511;28;20564;-80
2023/12/03 01:51:44;;;;;;;1999.90;999.90;;;-1.20;99.90;;;;;;5009714;28;20033;-79
2023/12/03 01:54:10;;;;;;;1999.90;999.90;;;-1.30;99.90;;;;;;5026905;28;20454;-80
2023/12/03 01:56:35;;;;;;;1999.90;999.90;;;-1.30;99.90;;;;;;5009772;28;20196;-80
2023/12/03 01:59:01;;;;;;;1999.90;999.90;;;-1.30;99.90;;;;;;5024139;28;20516;-80
2023/12/03 02:01:27;;;;;;;1999.90;999.90;;;-1.30;99.90;;;;;;5012255;28;20473;-80
2023/12/03 02:03:53;;;;;;;1999.90;999.90;;;-1.40;99.90;;;;;;5008749;28;20045;-79
2023/12/03 02:06:18;;;;;;;1999.90;999.90;;;-1.40;99.90;;;;;;5025347;28;20437;-80
2023/12/03 02:08:44;;;;;;;1999.90;999.90;;;-1.40;99.90;;;;;;5011293;28;20048;-79
2023/12/03 02:11:10;;;;;;;1999.90;999.90;;;-1.50;99.90;;;;;;5010301;28;20603;-79
2023/12/03 02:13:38;;;;;;;1999.90;999.90;;;-1.50;99.90;;;;;;5025408;28;20042;-79
2023/12/03 02:16:04;;;;;;;1999.90;999.90;;;-1.60;99.90;;;;;;5008248;28;20045;-79
2023/12/03 02:18:31;;;;;;;1999.90;999.90;;;-1.60;99.90;;;;;;5026479;28;20041;-79
2023/12/03 02:20:57;;;;;;;1999.90;999.90;;;-1.60;99.90;;;;;;5028937;28;20498;-79
2023/12/03 02:23:22;;;;;;;1999.90;999.90;;;-1.60;99.90;;;;;;5010626;28;20049;-79
2023/12/03 02:25:50;;;;;;;1999.90;999.90;;;-1.60;99.90;;;;;;5008449;28;20040;-79
2023/12/03 02:28:17;;;;;;;1999.90;999.90;;;-1.60;99.90;;;;;;5026981;28;20486;-79
2023/12/03 02:30:42;;;;;;;1999.90;999.90;;;-1.60;99.90;;;;;;5028268;28;20549;-79
2023/12/03 02:33:08;;;;;;;1999.90;999.90;;;-1.60;99.90;;;;;;5022076;28;20163;-79
2023/12/03 02:35:34;;;;;;;1999.90;999.90;;;-1.70;99.90;;;;;;5025274;28;20037;-79
2023/12/03 02:37:59;;;;;;;1999.90;999.90;;;-1.60;99.90;;;;;;5009569;28;20128;-79
2023/12/03 02:40:25;;;;;;;1999.90;999.90;;;-1.70;99.90;;;;;;5026230;28;20076;-79
2023/12/03 02:42:51;;;;;;;1999.90;999.90;;;-1.70;99.90;;;;;;5025619;28;20518;-79
2023/12/03 02:45:17;;;;;;;1999.90;999.90;;;-1.70;99.90;;;;;;5026183;28;20060;-78
2023/12/03 02:47:43;;;;;;;1999.90;999.90;;;-1.80;99.90;;;;;;5009875;28;20091;-79
2023/12/03 02:50:09;;;;;;;1999.90;999.90;;;-1.80;99.90;;;;;;5010815;28;20124;-79
2023/12/03 02:52:34;;;;;;;1999.90;999.90;;;-1.80;99.90;;;;;;5008722;28;20588;-79
2023/12/03 02:55:00;;;;;;;1999.90;999.90;;;-1.80;99.90;;;;;;5025985;28;20037;-79
2023/12/03 02:57:26;;;;;;;1999.90;999.90;;;-1.90;99.90;;;;;;5025994;28;20041;-79
2023/12/03 02:59:52;;;;;;;1999.90;999.90;;;-1.90;99.90;;;;;;5026674;28;20183;-79
2023/12/03 03:02:17;;;;;;;1999.90;999.90;;;-1.90;99.90;;;;;;5024516;28;20041;-79
2023/12/03 03:04:43;;;;;;;1999.90;999.90;;;-1.80;99.90;;;;;;5011442;28;20045;-79
2023/12/03 03:07:09;;;;;;;1999.90;999.90;;;-1.80;99.90;;;;;;5028750;28;20041;-79
2023/12/03 03:09:34;;;;;;;1999.90;999.90;;;-1.80;99.90;;;;;;5032571;28;20041;-79
2023/12/03 03:12:00;;;;;;;1999.90;999.90;;;-1.80;99.90;;;;;;5012944;28;20045;-79
2023/12/03 03:14:26;;;;;;;1999.90;999.90;;;-1.70;99.90;;;;;;5012356;28;20547;-79
2023/12/03 03:16:51;;;;;;;1999.90;999.90;;;-1.80;99.90;;;;;;5013481;28;20579;-79
2023/12/03 03:19:17;;;;;;;1999.90;999.90;;;-1.80;99.90;;;;;;5010166;28;20125;-79
2023/12/03 03:21:43;;;;;;;1999.90;999.90;;;-1.80;99.90;;;;;;5010519;28;20045;-79
2023/12/03 03:24:08;;;;;;;1999.90;999.90;;;-1.80;99.90;;;;;;5032088;28;20461;-79
2023/12/03 03:26:34;;;;;;;1999.90;999.90;;;-1.80;99.90;;;;;;5029013;28;20128;-79
2023/12/03 03:29:00;;;;;;;1999.90;999.90;;;-1.80;99.90;;;;;;5027102;28;20045;-78
2023/12/03 03:31:25;;;;;;;1999.90;999.90;;;-1.80;99.90;;;;;;5013169;28;20037;-79
2023/12/03 03:33:51;;;;;;;1999.90;999.90;;;-1.80;99.90;;;;;;5032009;28;20102;-78
2023/12/03 03:36:17;;;;;;;1999.90;999.90;;;-1.80;99.90;;;;;;5030945;28;20034;-78
2023/12/03 03:38:43;;;;;;;1999.90;999.90;;;-1.80;99.90;;;;;;5014580;28;20541;-79
2023/12/03 03:41:10;;;;;;;1999.90;999.90;;;-1.80;99.90;;;;;;5012200;28;20053;-79
2023/12/03 03:43:35;;;;;;;1999.90;999.90;;;-1.80;99.90;;;;;;5013638;28;20059;-79
2023/12/03 03:46:01;;;;;;;1999.90;999.90;;;-1.80;99.90;;;;;;5015562;28;20768;-78
2023/12/03 03:48:27;;;;;;;1999.90;999.90;;;-1.90;99.90;;;;;;5027885;28;20037;-79
2023/12/03 03:50:52;;;;;;;1999.90;999.90;;;-1.90;99.90;;;;;;5028937;28;20048;-78
2023/12/03 03:53:18;;;;;;;1999.90;999.90;;;-1.90;99.90;;;;;;5012873;28;20065;-79
2023/12/03 03:55:44;;;;;;;1999.90;999.90;;;-1.90;99.90;;;;;;5028468;28;20029;-79
2023/12/03 03:58:10;;;;;;;1999.90;999.90;;;-1.90;99.90;;;;;;5028453;28;20041;-79
2023/12/03 04:00:35;;;;;;;1999.90;999.90;;;-1.80;99.90;;;;;;5029565;28;20064;-78
2023/12/03 04:03:01;;;;;;;1999.90;999.90;;;-1.70;99.90;;;;;;5028112;28;20044;-78
2023/12/03 04:05:27;;;;;;;1999.90;999.90;;;-1.60;99.90;;;;;;5030097;28;20056;-79
2023/12/03 04:07:52;;;;;;;1999.90;999.90;;;-1.70;99.90;;;;;;5027847;28;20049;-79
2023/12/03 04:10:18;;;;;;;1999.90;999.90;;;-1.60;99.90;;;;;;5031257;28;20060;-79
2023/12/03 04:12:44;;;;;;;1999.90;999.90;;;-1.70;99.90;;;;;;5025864;28;20371;-78
2023/12/03 04:15:10;;;;;;;1999.90;999.90;;;-1.70;99.90;;;;;;5012446;28;20046;-78
2023/12/03 04:17:36;;;;;;;1999.90;999.90;;;-1.60;99.90;;;;;;5015483;28;20041;-78
2023/12/03 04:20:02;;;;;;;1999.90;999.90;;;-1.60;99.90;;;;;;5010990;28;20041;-78
2023/12/03 04:22:27;;;;;;;1999.90;999.90;;;-1.60;99.90;;;;;;5012442;28;20049;-78
2023/12/03 04:24:53;;;;;;;1999.90;999.90;;;-1.60;99.90;;;;;;5027440;28;20049;-78
2023/12/03 04:27:19;;;;;;;1999.90;999.90;;;-1.60;99.90;;;;;;5008920;28;20046;-78
2023/12/03 04:29:44;;;;;;;1999.90;999.90;;;-1.50;99.90;;;;;;5010539;28;20050;-78
2023/12/03 04:32:10;;;;;;;1999.90;999.90;;;-1.50;99.90;;;;;;5022315;28;20041;-78
2023/12/03 04:34:39;;;;;;;1999.90;999.90;;;-1.40;99.90;;;;;;5030189;28;20042;-78
2023/12/03 04:37:05;;;;;;;1999.90;999.90;;;-1.40;99.90;;;;;;5029092;28;20073;-78
2023/12/03 04:39:30;;;;;;;1999.90;999.90;;;-1.30;99.90;;;;;;5058781;28;20084;-78
2023/12/03 04:41:56;;;;;;;1999.90;999.90;;;-1.30;99.90;;;;;;5042247;28;20139;-78
2023/12/03 04:44:22;;;;;;;1999.90;999.90;;;-1.20;99.90;;;;;;5012598;28;20045;-78
2023/12/03 04:46:48;;;;;;;1999.90;999.90;;;-1.10;99.90;;;;;;5030912;28;20124;-78
2023/12/03 04:49:13;;;;;;;1999.90;999.90;;;-1.00;99.90;;;;;;5025150;28;20449;-78
2023/12/03 04:51:39;;;;;;;1999.90;999.90;;;-1.00;99.90;;;;;;5009240;28;20037;-78
2023/12/03 04:54:05;;;;;;;1999.90;999.90;;;-1.00;99.90;;;;;;5027662;28;20476;-78
2023/12/03 04:56:31;;;;;;;1999.90;999.90;;;-0.90;99.90;;;;;;5011066;28;20052;-78
2023/12/03 04:58:57;;;;;;;1999.90;999.90;;;-0.80;99.90;;;;;;5010909;28;20064;-78
2023/12/03 05:01:23;;;;;;;1999.90;999.90;;;-0.80;99.90;;;;;;5026138;28;20532;-78
2023/12/03 05:03:48;;;;;;;1999.90;999.90;;;-0.70;99.90;;;;;;5030342;28;20087;-78
2023/12/03 05:06:14;;;;;;;1999.90;999.90;;;-0.70;99.90;;;;;;5030571;28;20049;-78
2023/12/03 05:08:40;;;;;;;1999.90;999.90;;;-0.70;99.90;;;;;;5041876;28;20037;-78
2023/12/03 05:11:06;;;;;;;1999.90;999.90;;;-0.60;99.90;;;;;;5012538;28;20488;-78
2023/12/03 05:13:32;;;;;;;1999.90;999.90;;;-0.60;99.90;;;;;;5027688;28;20045;-78
2023/12/03 05:16:01;;;;;;;1999.90;999.90;;;-0.60;99.90;;;;;;5026155;28;20041;-78
2023/12/03 05:18:26;;;;;;;1999.90;999.90;;;-0.50;99.90;;;;;;5027376;28;20051;-78
2023/12/03 05:20:52;;;;;;;1999.90;999.90;;;-0.50;99.90;;;;;;5026900;28;20045;-78
2023/12/03 05:23:18;;;;;;;1999.90;999.90;;;-0.40;99.90;;;;;;5029252;28;20033;-78
2023/12/03 05:25:43;;;;;;;1999.90;999.90;;;-0.40;99.90;;;;;;5023787;28;20048;-78
2023/12/03 05:28:09;;;;;;;1999.90;999.90;;;-0.30;99.90;;;;;;5026152;28;20454;-78
2023/12/03 05:30:34;;;;;;;1999.90;999.90;;;-0.30;99.90;;;;;;5027119;28;20041;-79
2023/12/03 05:33:00;;;;;;;1999.90;999.90;;;-0.20;99.90;;;;;;5032006;28;20061;-79
2023/12/03 05:35:26;;;;;;;1999.90;999.90;;;-0.20;99.90;;;;;;5031499;28;20473;-79
2023/12/03 05:37:52;;;;;;;1999.90;999.90;;;-0.20;99.90;;;;;;5008940;28;20045;-79
2023/12/03 05:40:17;;;;;;;1999.90;999.90;;;-0.20;99.90;;;;;;5028162;28;20116;-79
2023/12/03 05:42:43;;;;;;;1999.90;999.90;;;-0.10;99.90;;;;;;5009614;28;20041;-79
2023/12/03 05:45:09;;;;;;;1999.90;999.90;;;-0.10;99.90;;;;;;5044703;28;20081;-79
2023/12/03 05:47:35;;;;;;;1999.90;999.90;;;-0.10;99.90;;;;;;5010353;28;20496;-79
2023/12/03 05:50:02;;;;;;;1999.90;999.90;;;0.00;99.90;;;;;;5011638;28;20037;-79
2023/12/03 05:52:28;;;;;;;1999.90;999.90;;;0.00;99.90;;;;;;5027207;28;20048;-79
2023/12/03 05:54:54;;;;;;;1999.90;999.90;;;0.10;99.90;;;;;;5007994;28;20413;-79
2023/12/03 05:57:20;;;;;;;1999.90;999.90;;;0.10;99.90;;;;;;5025537;28;20037;-79
2023/12/03 05:59:45;;;;;;;1999.90;999.90;;;0.10;99.90;;;;;;5010371;28;20042;-79
2023/12/03 06:02:11;;;;;;;1999.90;999.90;;;0.20;99.90;;;;;;5009456;28;20134;-79
2023/12/03 06:04:36;;;;;;;1999.90;999.90;;;0.20;99.90;;;;;;5024858;28;20045;-79
2023/12/03 06:07:02;;;;;;;1999.90;999.90;;;0.20;99.90;;;;;;5026293;28;20124;-79
2023/12/03 06:09:28;;;;;;;1999.90;999.90;;;0.30;99.90;;;;;;5009912;28;20562;-79
2023/12/03 06:11:53;;;;;;;1999.90;999.90;;;0.30;99.90;;;;;;5025580;28;20041;-79
2023/12/03 06:14:19;;;;;;;1999.90;999.90;;;0.40;99.90;;;;;;5028144;28;20425;-79
2023/12/03 06:16:44;;;;;;;1999.90;999.90;;;0.40;99.90;;;;;;5027376;28;20044;-79
2023/12/03 06:19:10;;;;;;;1999.90;999.90;;;0.50;99.90;;;;;;5027649;28;20045;-79
2023/12/03 06:21:35;;;;;;;1999.90;999.90;;;0.50;99.90;;;;;;5026798;28;20044;-79
2023/12/03 06:24:01;;;;;;;1999.90;999.90;;;0.50;99.90;;;;;;5026583;28;20124;-79
2023/12/03 06:26:27;;;;;;;1999.90;999.90;;;0.60;99.90;;;;;;5022417;28;20520;-79
2023/12/03 06:28:53;;;;;;;1999.90;999.90;;;0.60;99.90;;;;;;5023880;28;20106;-78
2023/12/03 06:31:18;;;;;;;1999.90;999.90;;;0.60;99.90;;;;;;5029445;28;20493;-79
2023/12/03 06:33:46;;;;;;;1999.90;999.90;;;0.60;99.90;;;;;;5012992;28;20113;-79
2023/12/03 06:36:12;;;;;;;1999.90;999.90;;;0.60;99.90;;;;;;5026276;28;20029;-78
2023/12/03 06:38:37;;;;;;;1999.90;999.90;;;0.70;99.90;;;;;;5026675;28;20033;-78
2023/12/03 06:41:03;;;;;;;1999.90;999.90;;;0.70;99.90;;;;;;5012594;28;20061;-78
2023/12/03 06:43:29;;;;;;;1999.90;999.90;;;0.70;99.90;;;;;;5056392;28;20037;-78
2023/12/03 06:45:54;;;;;;;1999.90;999.90;;;0.70;99.90;;;;;;5029310;28;20054;-78
2023/12/03 06:48:21;;;;;;;1999.90;999.90;;;0.70;99.90;;;;;;5026595;28;20193;-78
2023/12/03 06:50:47;;;;;;;1999.90;999.90;;;0.70;99.90;;;;;;5009320;28;20668;-78
2023/12/03 06:53:13;;;;;;;1999.90;999.90;;;0.70;99.90;;;;;;5059539;28;20037;-78
2023/12/03 06:55:38;;;;;;;1999.90;999.90;;;0.70;99.90;;;;;;5028026;28;20048;-78
2023/12/03 06:58:04;;;;;;;1999.90;999.90;;;0.70;99.90;;;;;;5022781;28;20045;-78
2023/12/03 07:00:30;;;;;;;1999.90;999.90;;;0.70;99.90;;;;;;5026797;28;20045;-78
2023/12/03 07:02:55;;;;;;;1999.90;999.90;;;0.70;99.90;;;;;;5006477;28;20041;-78
2023/12/03 07:05:21;;;;;;;1999.90;999.90;;;0.70;99.90;;;;;;5008557;28;20040;-78
2023/12/03 07:07:51;;;;;;;1999.90;999.90;;;0.70;99.90;;;;;;5024075;28;20144;-78
2023/12/03 07:10:17;;;;;;;1999.90;999.90;;;0.80;99.90;;;;;;5027433;28;20029;-78
2023/12/03 07:12:43;;;;;;;1999.90;999.90;;;0.70;99.90;;;;;;5025156;28;20041;-78
2023/12/03 07:15:09;;;;;;;1999.90;999.90;;;0.80;99.90;;;;;;5025452;28;20037;-78
2023/12/03 07:17:34;;;;;;;1999.90;999.90;;;0.80;99.90;;;;;;5025111;28;20041;-78
2023/12/03 07:20:00;;;;;;;1999.90;999.90;;;0.80;99.90;;;;;;5023432;28;20063;-78
2023/12/03 07:22:26;;;;;;;1999.90;999.90;;;0.80;99.90;;;;;;5022342;28;20052;-78
2023/12/03 07:24:53;;;;;;;1999.90;999.90;;;0.80;99.90;;;;;;5027489;28;20048;-78
2023/12/03 07:27:19;;;;;;;1999.90;999.90;;;0.80;99.90;;;;;;5027646;28;20045;-78
2023/12/03 07:29:45;;;;;;;1999.90;999.90;;;0.90;99.90;;;;;;5029226;28;20034;-78
2023/12/03 07:32:10;;;;;;;1999.90;999.90;;;0.80;99.90;;;;;;5025596;28;20037;-78
2023/12/03 07:34:36;;;;;;;1999.90;999.90;;;0.90;99.90;;;;;;5027399;28;20041;-78
2023/12/03 07:37:05;;;;;;;1999.90;999.90;;;0.90;99.90;;;;;;5005460;28;20041;-78
2023/12/03 07:39:31;;;;;;;1999.90;999.90;;;0.90;99.90;;;;;;5057704;28;20041;-78
2023/12/03 07:41:56;;;;;;;1999.90;999.90;;;0.90;99.90;;;;;;5023743;28;20874;-78
2023/12/03 07:44:22;;;;;;;1999.90;999.90;;;0.90;99.90;;;;;;5023646;28;20038;-78
2023/12/03 07:46:49;;;;;;;1999.90;999.90;;;0.90;99.90;;;;;;5024685;28;20816;-78
2023/12/03 07:49:14;;;;;;;1999.90;999.90;;;0.90;99.90;;;;;;5030076;28;20041;-78
2023/12/03 07:51:40;;;;;;;1999.90;999.90;;;0.90;99.90;;;;;;5027814;28;20052;-77
2023/12/03 07:54:05;;;;;;;1999.90;999.90;;;0.90;99.90;;;;;;5026680;28;20037;-78
2023/12/03 07:56:39;;;;;;;1999.90;999.90;;;0.90;99.90;;;;;;5030379;28;20037;-77
2023/12/03 07:59:05;;;;;;;1999.90;999.90;;;0.90;99.90;;;;;;5032728;28;20041;-77
2023/12/03 08:01:31;;;;;;;1999.90;999.90;;;0.90;99.90;;;;;;5011312;28;20490;-78
2023/12/03 08:03:57;;;;;;;1999.90;999.90;;;0.90;99.90;;;;;;5015620;28;20049;-78
2023/12/03 08:06:23;;;;;;;1999.90;999.90;;;0.90;99.90;;;;;;5062719;28;20044;-78
2023/12/03 08:08:49;;;;;;;1999.90;999.90;;;0.90;99.90;;;;;;5033671;28;20474;-77
2023/12/03 08:11:15;;;;;;;1999.90;999.90;;;0.90;99.90;;;;;;5026922;28;20064;-77
2023/12/03 08:13:40;;;;;;;1999.90;999.90;;;0.90;99.90;;;;;;5031127;28;20481;-78
2023/12/03 08:16:10;;;;;;;1999.90;999.90;;;0.90;99.90;;;;;;5029975;28;20037;-78
2023/12/03 08:18:35;;;;;;;1999.90;999.90;;;0.90;99.90;;;;;;5027990;28;20060;-78
2023/12/03 08:21:01;;;;;;;1999.90;999.90;;;0.90;99.90;;;;;;5028291;28;20535;-78
2023/12/03 08:23:26;;;;;;;1999.90;999.90;;;1.00;99.90;;;;;;5035407;28;20072;-78
2023/12/03 08:25:52;;;;;;;1999.90;999.90;;;1.00;99.90;;;;;;5033083;28;20072;-78
2023/12/03 08:28:18;;;;;;;1999.90;999.90;;;1.00;99.90;;;;;;5028442;28;20036;-78
2023/12/03 08:30:44;;;;;;;1999.90;999.90;;;1.00;99.90;;;;;;5031423;28;20043;-78
2023/12/03 08:33:10;;;;;;;1999.90;999.90;;;1.00;99.90;;;;;;5011459;28;20029;-78
2023/12/03 08:35:35;;;;;;;1999.90;999.90;;;1.10;99.90;;;;;;5030455;28;20041;-78
2023/12/03 08:38:01;;;;;;;1999.90;999.90;;;1.10;99.90;;;;;;5027046;28;20043;-78
2023/12/03 08:40:27;;;;;;;1999.90;999.90;;;1.10;99.90;;;;;;5012535;28;20095;-78
2023/12/03 08:42:52;;;;;;;1999.90;999.90;;;1.10;99.90;;;;;;5017971;28;20045;-78
2023/12/03 08:45:18;;;;;;;1999.90;999.90;;;1.20;99.90;;;;;;5015013;28;20039;-77
2023/12/03 08:47:44;;;;;;;1999.90;999.90;;;1.20;99.90;;;;;;5009589;28;20486;-78
2023/12/03 08:50:09;;;;;;;1999.90;999.90;;;1.20;99.90;;;;;;5028550;28;20029;-78
2023/12/03 08:52:35;;;;;;;1999.90;999.90;;;1.20;99.90;;;;;;5013050;28;20034;-78
2023/12/03 08:55:02;;;;;;;1999.90;999.90;;;1.20;99.90;;;;;;5023043;28;20045;-77
2023/12/03 08:57:28;;;;;;;1999.90;999.90;;;1.30;99.90;;;;;;5027653;28;20090;-77
2023/12/03 08:59:54;;;;;;;1999.90;999.90;;;1.30;99.90;;;;;;5025517;28;20045;-77
2023/12/03 09:02:20;;;;;;;1999.90;999.90;;;1.40;99.90;;;;;;5019121;28;20047;-77
2023/12/03 09:04:46;;;;;;;1999.90;999.90;;;1.40;99.90;;;;;;5007641;28;20060;-78
2023/12/03 09:07:12;;;;;;;1999.90;999.90;;;1.40;99.90;;;;;;5028307;28;20041;-78
2023/12/03 09:09:37;;;;;;;1999.90;999.90;;;1.50;99.90;;;;;;5011116;28;20498;-78
2023/12/03 09:12:03;;;;;;;1999.90;999.90;;;1.50;99.90;;;;;;5025816;28;20535;-78
2023/12/03 09:14:29;;;;;;;1999.90;999.90;;;1.60;99.90;;;;;;5024213;28;20474;-78
2023/12/03 09:16:55;;;;;;;1999.90;999.90;;;1.60;99.90;;;;;;5025336;28;20037;-77
2023/12/03 09:19:20;;;;;;;1999.90;999.90;;;1.60;99.90;;;;;;5011031;28;20045;-77
2023/12/03 09:21:46;;;;;;;1999.90;999.90;;;1.70;99.90;;;;;;5024784;28;20076;-77
2023/12/03 09:24:15;;;;;;;1999.90;999.90;;;1.70;99.90;;;;;;5025500;28;20477;-77
2023/12/03 09:26:43;;;;;;;1999.90;999.90;;;1.70;99.90;;;;;;5027646;28;20477;-77
2023/12/03 09:29:11;;;;;;;1999.90;999.90;;;1.70;99.90;;;;;;5028515;28;20033;-77
2023/12/03 09:31:39;;;;;;;1999.90;999.90;;;1.70;99.90;;;;;;5009369;28;20396;-78
2023/12/03 09:34:05;;;;;;;1999.90;999.90;;;1.80;99.90;;;;;;5008134;28;20068;-77
2023/12/03 09:36:31;;;;;;;1999.90;999.90;;;1.80;99.90;;;;;;5029940;28;20069;-77
2023/12/03 09:38:57;;;;;;;1999.90;999.90;;;1.80;99.90;;;;;;5007429;28;20140;-77
2023/12/03 09:41:24;;;;;;;1999.90;999.90;;;1.80;99.90;;;;;;5025513;28;20144;-78
2023/12/03 09:43:55;;;;;;;1999.90;999.90;;;1.90;99.90;;;;;;5058935;28;20107;-78
2023/12/03 09:46:23;;;;;;;1999.90;999.90;;;1.90;99.90;;;;;;5009648;28;20150;-78
2023/12/03 09:48:50;;;;;;;1999.90;999.90;;;1.90;99.90;;;;;;5031700;28;20037;-78
2023/12/03 09:51:18;;;;;;;1999.90;999.90;;;1.90;99.90;;;;;;5010888;28;20037;-78
2023/12/03 09:53:47;;;;;;;1999.90;999.90;;;1.90;99.90;;;;;;5009779;28;20393;-78
2023/12/03 09:56:13;;;;;;;1999.90;999.90;;;1.90;99.90;;;;;;5006449;28;20041;-78
2023/12/03 09:58:39;;;;;;;1999.90;999.90;;;1.80;99.90;;;;;;5014402;28;20067;-78
2023/12/03 10:01:06;;;;;;;1999.90;999.90;;;1.90;99.90;;;;;;5007384;28;20797;-78
2023/12/03 10:03:32;;;;;;;1999.90;999.90;;;1.80;99.90;;;;;;5026398;28;20448;-78
2023/12/03 10:05:57;;;;;;;1999.90;999.90;;;1.90;99.90;;;;;;5013132;28;20041;-78
2023/12/03 10:08:23;;;;;;;1999.90;999.90;;;1.90;99.90;;;;;;5026042;28;20512;-78
2023/12/03 10:11:13;;;;;;;1999.90;999.90;;;1.90;99.90;;;;;;5024494;28;20559;-78
2023/12/03 10:13:39;;;;;;;1999.90;999.90;;;2.00;99.90;;;;;;5027856;28;20041;-78
2023/12/03 10:16:12;;;;;;;1999.90;999.90;;;2.10;99.90;;;;;;5014555;28;20567;-79
2023/12/03 10:18:37;;;;;;;1999.90;999.90;;;2.20;99.90;;;;;;5009283;28;20041;-79
2023/12/03 10:21:10;;;;;;;1999.90;999.90;;;2.30;99.90;;;;;;5014678;28;20051;-79
2023/12/03 10:23:37;;;;;;;1999.90;999.90;;;2.40;99.90;;;;;;5021120;28;20509;-80
2023/12/03 10:26:15;;;;;;;1999.90;999.90;;;2.60;99.90;;;;;;5033681;28;20409;-79
2023/12/03 10:28:42;;;;;;;1999.90;999.90;;;2.60;99.90;;;;;;5029415;28;20490;-79
2023/12/03 10:31:12;;;;;;;1999.90;999.90;;;2.70;99.90;;;;;;5021239;28;20809;-79
2023/12/03 10:33:38;;;;;;;1999.90;999.90;;;2.60;99.90;;;;;;5031035;28;20049;-79
2023/12/03 10:36:04;;;;;;;1999.90;999.90;;;2.50;99.90;;;;;;5001613;28;20529;-79
2023/12/03 10:38:41;;;;;;;1999.90;999.90;;;2.60;99.90;;;;;;5008588;28;20049;-79
2023/12/03 10:41:08;;;;;;;1999.90;999.90;;;2.70;99.90;;;;;;5027353;28;20068;-79
2023/12/03 10:43:39;;;;;;;1999.90;999.90;;;2.70;99.90;;;;;;5008708;28;20459;-79
2023/12/03 10:46:19;;;;;;;1999.90;999.90;;;2.70;99.90;;;;;;5023310;28;20579;-79
2023/12/03 10:48:49;;;;;;;1999.90;999.90;;;2.70;99.90;;;;;;5036820;28;20067;-79
2023/12/03 10:51:15;;;;;;;1999.90;999.90;;;2.80;99.90;;;;;;5005485;28;20111;-79
2023/12/03 10:53:40;;;;;;;1999.90;999.90;;;2.80;99.90;;;;;;5022338;28;20037;-79
2023/12/03 10:56:07;;;;;;;1999.90;999.90;;;2.90;99.90;;;;;;5013293;28;20045;-79
2023/12/03 10:58:41;;;;;;;1999.90;999.90;;;2.90;99.90;;;;;;5011342;28;20038;-79
2023/12/03 11:01:13;;;;;;;1999.90;999.90;;;2.90;99.90;;;;;;5024000;28;20416;-79
2023/12/03 11:03:47;;;;;;;1999.90;999.90;;;2.80;99.90;;;;;;4995334;28;20506;-80
2023/12/03 11:06:14;;;;;;;;;;;2.80;99.90;;;;;;5022086;28;20037;-80
2023/12/03 11:08:40;;;;;;;1999.90;999.90;;;2.80;99.90;;;;;;5013609;28;19936;-79
2023/12/03 11:11:11;;;;;;;1999.90;999.90;;;2.80;99.90;;;;;;5023538;28;20172;-79
2023/12/03 11:13:37;;;;;;;1999.90;999.90;;;2.90;99.90;;;;;;5008135;28;20048;-80
2023/12/03 11:16:05;;;;;;;1999.90;999.90;;;2.90;99.90;;;;;;5008157;28;20741;-80
2023/12/03 11:18:32;;;;;;;1999.90;999.90;;;2.90;99.90;;;;;;5020431;28;20132;-80
2023/12/03 11:21:13;;;;;;;1999.90;999.90;;;3.00;99.90;;;;;;5019987;28;20099;-80
2023/12/03 11:23:45;;;;;;;1999.90;999.90;;;3.00;99.90;;;;;;5021670;28;20037;-80
2023/12/03 11:26:15;;;;;;;1999.90;999.90;;;2.90;99.90;;;;;;5027531;28;20453;-80
2023/12/03 11:28:55;;;;;;;1999.90;999.90;;;2.90;99.90;;;;;;5036564;28;20069;-80
2023/12/03 11:31:23;;;;;;;1999.90;999.90;;;2.90;99.90;;;;;;5026588;28;20033;-80
2023/12/03 11:33:51;;;;;;;1999.90;999.90;;;2.80;99.90;;;;;;5030976;28;20037;-79
2023/12/03 11:36:17;;;;;;;1999.90;999.90;;;2.70;99.90;;;;;;5024883;28;20573;-80
2023/12/03 11:38:43;;;;;;;1999.90;999.90;;;2.60;99.90;;;;;;5023435;28;20044;-80
2023/12/03 11:41:09;;;;;;;1999.90;999.90;;;2.50;99.90;;;;;;5031732;28;20054;-80
2023/12/03 11:43:35;;;;;;;1999.90;999.90;;;2.50;99.90;;;;;;5041954;28;20044;-80
2023/12/03 11:46:01;;;;;;;1999.90;999.90;;;2.40;99.90;;;;;;5015984;28;20489;-80
2023/12/03 11:48:29;;;;;;;1999.90;999.90;;;2.30;99.90;;;;;;5042869;28;20037;-80
2023/12/03 11:50:56;;;;;;;1999.90;999.90;;;2.30;99.90;;;;;;5039383;28;20053;-80
2023/12/03 11:53:41;;;;;;;1999.90;999.90;;;2.30;99.90;;;;;;5019094;28;20042;-80
2023/12/03 11:56:07;;;;;;;;;;;2.20;99.90;;;;;;5016675;28;20048;-80
2023/12/03 11:58:33;;;;;;;1999.90;999.90;;;2.20;99.90;;;;;;5038853;28;19928;-80
2023/12/03 12:00:58;;;;;;;1999.90;999.90;;;2.10;99.90;;;;;;5040740;28;20151;-80
2023/12/03 12:03:25;;;;;;;1999.90;999.90;;;2.10;99.90;;;;;;5026435;28;20124;-80